Time;durP1;ratioP1;P1;durP2;ratioP2;P2;SDS_P1;SDS_P2;PMS_P1;PMS_P2;Temp;Humidity;BMP_temperature;BMP_pressure;BME280_temperature;BME280_humidity;BME280_pressure;Samples;Min_cycle;Max_cycle;Signal;HPM_P1;HPM_P2
2021/06/09 00:01:24;;;;;;;8.73;7.82;;;24.10;66.90;;;;;;5012078;28;20092;-47
2021/06/09 00:03:49;;;;;;;9.30;8.40;;;24.10;66.80;;;;;;5012330;28;20038;-49
2021/06/09 00:06:15;;;;;;;8.32;7.53;;;24.10;66.70;;;;;;5012147;28;20044;-52
2021/06/09 00:08:41;;;;;;;8.30;7.40;;;24.20;66.60;;;;;;4994405;28;20098;-47
2021/06/09 00:11:06;;;;;;;10.05;8.88;;;24.10;66.50;;;;;;5007237;28;20076;-46
2021/06/09 00:13:33;;;;;;;9.40;8.23;;;24.10;66.50;;;;;;5011553;28;20053;-48
2021/06/09 00:16:02;;;;;;;8.63;7.75;;;24.10;66.60;;;;;;5012197;28;20030;-48
2021/06/09 00:18:28;;;;;;;8.30;7.50;;;24.10;66.80;;;;;;5010596;28;20371;-52
2021/06/09 00:20:54;;;;;;;8.30;7.43;;;24.10;66.70;;;;;;5011311;28;20038;-48
2021/06/09 00:23:25;;;;;;;10.73;8.50;;;24.10;66.70;;;;;;5011674;28;20407;-49
2021/06/09 00:25:53;;;;;;;9.00;8.10;;;24.00;66.60;;;;;;5011260;28;20044;-50
2021/06/09 00:28:19;;;;;;;9.50;8.07;;;24.00;66.60;;;;;;5011406;28;20030;-51
2021/06/09 00:30:45;;;;;;;8.05;7.20;;;24.00;66.50;;;;;;5005093;28;20025;-50
2021/06/09 00:33:11;;;;;;;8.30;7.50;;;24.00;66.40;;;;;;5011764;28;20495;-52
2021/06/09 00:35:37;;;;;;;8.23;7.38;;;24.00;66.30;;;;;;5011419;28;20069;-51
2021/06/09 00:38:04;;;;;;;8.65;7.80;;;24.10;66.20;;;;;;5015942;28;20026;-47
2021/06/09 00:40:31;;;;;;;8.02;7.32;;;24.00;66.10;;;;;;5014338;28;20026;-48
2021/06/09 00:43:11;;;;;;;9.65;8.32;;;24.10;66.20;;;;;;5020898;28;20044;-51
2021/06/09 00:45:40;;;;;;;10.45;7.25;;;24.10;66.20;;;;;;5014818;28;20025;-50
2021/06/09 00:48:06;;;;;;;9.77;7.97;;;24.10;66.10;;;;;;5015250;28;20030;-49
2021/06/09 00:50:32;;;;;;;9.30;8.30;;;24.00;66.00;;;;;;5014100;28;20034;-51
2021/06/09 00:53:27;;;;;;;8.80;7.28;;;24.00;66.10;;;;;;5015435;28;20409;-47
2021/06/09 00:55:44;;;;;;;9.25;7.82;;;24.00;66.00;;;;;;5014870;28;20038;-49
2021/06/09 00:58:11;;;;;;;8.98;7.95;;;24.10;66.00;;;;;;5015727;28;20041;-47
2021/06/09 01:00:38;;;;;;;9.15;8.20;;;24.00;65.90;;;;;;5015058;28;20112;-48
2021/06/09 01:03:04;;;;;;;8.13;7.07;;;24.00;65.90;;;;;;5015872;28;20022;-46
2021/06/09 01:05:30;;;;;;;9.75;7.60;;;24.10;65.90;;;;;;5015163;28;20471;-51
2021/06/09 01:08:03;;;;;;;8.25;7.45;;;24.00;65.90;;;;;;5015403;28;20061;-46
2021/06/09 01:10:30;;;;;;;8.07;7.28;;;24.00;65.90;;;;;;5014319;28;20179;-49
2021/06/09 01:12:57;;;;;;;8.88;7.93;;;24.00;65.90;;;;;;5015134;28;20081;-47
2021/06/09 01:15:24;;;;;;;8.63;7.22;;;24.10;65.90;;;;;;5014364;28;20064;-48
2021/06/09 01:17:50;;;;;;;8.38;7.47;;;24.00;65.90;;;;;;5014768;28;20471;-48
2021/06/09 01:20:16;;;;;;;9.73;7.75;;;24.00;65.90;;;;;;5014536;28;20561;-48
2021/06/09 01:22:41;;;;;;;8.52;7.50;;;24.00;65.80;;;;;;5014590;28;20026;-46
2021/06/09 01:25:08;;;;;;;8.77;7.88;;;24.00;65.80;;;;;;5014279;28;20045;-46
2021/06/09 01:27:34;;;;;;;8.07;7.28;;;24.00;65.80;;;;;;5013538;28;20463;-47
2021/06/09 01:30:00;;;;;;;9.35;7.70;;;24.00;65.80;;;;;;5014620;28;20040;-47
2021/06/09 01:32:27;;;;;;;8.70;7.82;;;24.00;65.80;;;;;;5014564;28;20087;-49
2021/06/09 01:34:53;;;;;;;7.93;7.13;;;24.00;66.30;;;;;;5014994;28;20375;-47
2021/06/09 01:37:20;;;;;;;9.30;7.97;;;24.00;65.70;;;;;;5014577;28;20105;-49
2021/06/09 01:39:46;;;;;;;8.15;7.28;;;24.00;65.70;;;;;;5013874;28;20038;-47
2021/06/09 01:42:12;;;;;;;9.10;7.72;;;24.00;65.70;;;;;;5014130;28;20085;-48
2021/06/09 01:44:39;;;;;;;8.07;7.22;;;24.00;65.70;;;;;;5013413;28;20356;-46
2021/06/09 01:47:05;;;;;;;8.20;7.40;;;24.00;65.70;;;;;;5013597;28;20034;-47
2021/06/09 01:49:31;;;;;;;9.38;7.53;;;23.90;65.60;;;;;;5013080;28;20030;-49
2021/06/09 01:51:57;;;;;;;9.18;8.02;;;24.00;65.60;;;;;;5014514;28;20046;-51
2021/06/09 01:54:23;;;;;;;8.25;7.38;;;24.00;65.70;;;;;;5013770;28;20022;-52
2021/06/09 01:56:50;;;;;;;8.27;7.45;;;24.00;65.60;;;;;;5013501;28;20037;-49
2021/06/09 01:59:18;;;;;;;7.97;7.18;;;23.90;65.60;;;;;;5014233;28;20025;-50
2021/06/09 02:01:49;;;;;;;9.70;7.68;;;23.90;65.70;;;;;;5013667;28;20017;-49
2021/06/09 02:04:16;;;;;;;9.03;8.13;;;23.90;65.60;;;;;;5013789;28;20034;-52
2021/06/09 02:06:44;;;;;;;8.10;7.00;;;23.90;65.60;;;;;;5013490;28;20688;-48
2021/06/09 02:09:11;;;;;;;8.10;7.30;;;23.90;65.60;;;;;;5014671;28;20030;-49
2021/06/09 02:11:41;;;;;;;8.07;7.30;;;23.90;65.50;;;;;;5013185;28;20041;-48
2021/06/09 02:14:07;;;;;;;8.10;7.30;;;23.90;65.60;;;;;;5014135;28;20037;-49
2021/06/09 02:16:35;;;;;;;6.80;6.18;;;23.90;65.90;;;;;;5013246;28;20583;-51
2021/06/09 02:19:00;;;;;;;9.45;8.23;;;23.90;65.90;;;;;;5014200;28;20053;-50
2021/06/09 02:21:26;;;;;;;7.95;7.22;;;23.90;65.80;;;;;;5012907;28;20501;-47
2021/06/09 02:23:52;;;;;;;8.00;7.30;;;23.90;65.70;;;;;;5013753;28;20026;-50
2021/06/09 02:26:18;;;;;;;9.27;7.43;;;23.90;65.60;;;;;;5013577;28;20381;-49
2021/06/09 02:28:44;;;;;;;8.45;7.65;;;23.90;65.60;;;;;;5012614;28;20037;-47
2021/06/09 02:31:12;;;;;;;11.55;7.35;;;23.90;65.60;;;;;;5013457;28;20022;-51
2021/06/09 02:33:38;;;;;;;8.73;7.82;;;23.90;65.50;;;;;;5013158;28;20030;-53
2021/06/09 02:36:05;;;;;;;8.60;7.43;;;23.90;66.10;;;;;;5013849;28;20030;-47
2021/06/09 02:38:34;;;;;;;8.23;7.32;;;23.90;65.40;;;;;;5012679;28;20088;-47
2021/06/09 02:41:00;;;;;;;8.45;6.70;;;23.90;65.40;;;;;;5013444;28;20080;-48
2021/06/09 02:43:31;;;;;;;8.73;7.40;;;23.90;66.00;;;;;;5012622;28;20434;-50
2021/06/09 02:46:04;;;;;;;8.88;7.32;;;23.90;65.40;;;;;;5013253;28;20038;-47
2021/06/09 02:48:31;;;;;;;8.15;7.07;;;23.90;65.40;;;;;;5012470;28;20109;-48
2021/06/09 02:51:01;;;;;;;7.60;6.82;;;23.90;65.40;;;;;;5013010;28;20565;-47
2021/06/09 02:53:49;;;;;;;7.82;6.88;;;23.90;65.40;;;;;;5012739;28;20053;-50
2021/06/09 02:56:27;;;;;;;7.70;6.90;;;23.90;65.40;;;;;;5013717;28;20087;-47
2021/06/09 02:59:05;;;;;;;7.55;6.80;;;23.90;65.30;;;;;;5012969;28;20058;-48
2021/06/09 03:01:40;;;;;;;7.53;6.82;;;23.90;65.30;;;;;;5012707;28;20026;-51
2021/06/09 03:04:09;;;;;;;9.60;7.60;;;23.90;65.40;;;;;;5013464;28;20026;-50
2021/06/09 03:06:49;;;;;;;8.10;7.30;;;23.90;65.40;;;;;;4997831;28;20126;-47
2021/06/09 03:09:40;;;;;;;8.45;7.40;;;23.90;65.30;;;;;;5001044;28;20037;-48
2021/06/09 03:12:39;;;;;;;8.70;7.63;;;23.90;65.30;;;;;;5012891;28;20450;-49
2021/06/09 03:17:56;;;;;;;9.68;6.68;;;23.90;65.30;;;;;;5010388;28;20030;-53
2021/06/09 03:20:42;;;;;;;9.88;7.85;;;23.90;65.30;;;;;;5012671;28;20069;-47
2021/06/09 03:23:16;;;;;;;8.85;8.02;;;23.90;65.20;;;;;;5005317;28;20168;-47
2021/06/09 03:25:57;;;;;;;7.97;7.18;;;23.90;65.20;;;;;;5012004;28;20030;-51
2021/06/09 03:28:53;;;;;;;8.90;7.78;;;23.90;65.20;;;;;;5013088;28;20053;-49
2021/06/09 03:31:24;;;;;;;8.07;7.28;;;23.90;65.20;;;;;;5012758;28;20431;-46
2021/06/09 03:33:52;;;;;;;8.13;7.32;;;23.90;65.10;;;;;;5011896;28;20026;-48
2021/06/09 03:36:38;;;;;;;8.48;7.43;;;23.90;65.10;;;;;;5012308;28;20042;-48
2021/06/09 03:39:07;;;;;;;8.68;7.53;;;23.90;65.10;;;;;;5012292;28;20037;-48
2021/06/09 03:41:40;;;;;;;10.48;7.65;;;23.90;65.10;;;;;;5011529;28;20033;-47
2021/06/09 03:44:08;;;;;;;8.40;7.50;;;23.90;65.00;;;;;;5012160;28;20128;-47
2021/06/09 03:46:37;;;;;;;9.63;7.13;;;23.90;65.10;;;;;;5011414;28;20461;-47
2021/06/09 03:49:14;;;;;;;8.18;7.13;;;23.90;65.10;;;;;;5012201;28;20079;-48
2021/06/09 03:51:42;;;;;;;9.48;7.85;;;23.90;65.00;;;;;;5011693;28;20049;-51
2021/06/09 03:54:09;;;;;;;7.90;7.13;;;23.80;65.00;;;;;;5012272;28;20021;-50
2021/06/09 03:56:39;;;;;;;8.88;7.95;;;23.80;65.00;;;;;;5011696;28;20033;-48
2021/06/09 03:59:05;;;;;;;9.75;7.13;;;23.80;65.00;;;;;;5017519;28;20426;-48
2021/06/09 04:01:35;;;;;;;7.32;6.63;;;23.80;64.90;;;;;;5022856;28;20101;-52
2021/06/09 04:04:03;;;;;;;7.95;7.15;;;23.90;65.10;;;;;;5012231;28;20022;-48
2021/06/09 04:06:30;;;;;;;7.47;6.68;;;23.80;65.00;;;;;;5010997;28;20038;-52
2021/06/09 04:08:57;;;;;;;7.82;6.93;;;23.80;64.90;;;;;;5011211;28;20116;-49
2021/06/09 04:11:24;;;;;;;7.60;6.90;;;23.80;64.90;;;;;;5011640;28;20038;-47
2021/06/09 04:13:52;;;;;;;7.38;6.57;;;23.80;64.90;;;;;;5011460;28;20072;-48
2021/06/09 04:16:21;;;;;;;7.28;6.55;;;23.90;64.90;;;;;;5011966;28;20033;-51
2021/06/09 04:18:49;;;;;;;7.47;6.68;;;23.90;64.90;;;;;;5011362;28;20116;-50
2021/06/09 04:21:15;;;;;;;7.32;6.63;;;23.80;64.80;;;;;;5012231;28;20069;-48
2021/06/09 04:23:41;;;;;;;7.22;6.53;;;23.80;64.80;;;;;;5009544;28;20383;-48
2021/06/09 04:26:11;;;;;;;7.65;6.78;;;23.80;65.00;;;;;;5011549;28;20042;-47
2021/06/09 04:28:37;;;;;;;7.97;6.85;;;23.80;64.90;;;;;;5011172;28;20036;-48
2021/06/09 04:31:03;;;;;;;7.00;6.30;;;23.80;65.00;;;;;;5011519;28;20034;-47
2021/06/09 04:33:30;;;;;;;8.60;7.18;;;23.80;64.90;;;;;;5011350;28;20068;-52
2021/06/09 04:35:57;;;;;;;7.68;6.43;;;23.80;64.90;;;;;;5012053;28;20037;-50
2021/06/09 04:38:22;;;;;;;8.02;6.40;;;23.80;64.80;;;;;;5011803;28;20022;-47
2021/06/09 04:40:53;;;;;;;6.97;6.38;;;23.80;64.80;;;;;;5010905;28;20608;-47
2021/06/09 04:43:24;;;;;;;7.63;6.93;;;23.80;64.80;;;;;;5011390;28;20510;-50
2021/06/09 04:45:50;;;;;;;7.00;6.33;;;23.80;64.70;;;;;;5009665;28;20037;-50
2021/06/09 04:48:17;;;;;;;7.85;7.10;;;23.80;64.70;;;;;;5011051;28;20269;-51
2021/06/09 04:50:46;;;;;;;7.22;6.25;;;23.80;64.70;;;;;;5010398;28;20128;-47
2021/06/09 04:53:13;;;;;;;7.28;6.55;;;23.80;64.70;;;;;;5011549;28;20050;-47
2021/06/09 04:55:50;;;;;;;7.82;6.88;;;23.80;64.70;;;;;;5010387;28;20100;-46
2021/06/09 04:58:19;;;;;;;8.15;7.00;;;23.80;64.70;;;;;;5011889;28;20030;-49
2021/06/09 05:00:46;;;;;;;10.65;7.05;;;23.80;64.70;;;;;;5011071;28;20022;-48
2021/06/09 05:03:12;;;;;;;7.50;6.18;;;23.80;64.70;;;;;;5011957;28;20038;-49
2021/06/09 05:05:38;;;;;;;9.02;7.68;;;23.80;64.60;;;;;;5042331;28;20030;-53
2021/06/09 05:08:05;;;;;;;8.63;7.07;;;23.90;64.60;;;;;;5007412;28;20030;-52
2021/06/09 05:10:33;;;;;;;7.95;6.90;;;23.90;64.60;;;;;;5010580;28;20030;-51
2021/06/09 05:13:07;;;;;;;6.70;6.07;;;23.90;64.60;;;;;;5011492;28;20378;-49
2021/06/09 05:15:39;;;;;;;7.25;6.55;;;23.80;64.50;;;;;;5010076;28;20551;-48
2021/06/09 05:18:09;;;;;;;7.65;6.60;;;23.80;64.60;;;;;;5010733;28;20108;-48
2021/06/09 05:20:38;;;;;;;7.25;6.07;;;23.80;64.60;;;;;;5010564;28;20030;-47
2021/06/09 05:23:20;;;;;;;8.48;6.75;;;23.90;64.70;;;;;;5013928;28;20115;-46
2021/06/09 05:25:49;;;;;;;6.65;6.00;;;23.90;64.60;;;;;;5014034;28;20078;-48
2021/06/09 05:28:16;;;;;;;6.82;5.97;;;23.80;64.50;;;;;;5015259;28;20030;-47
2021/06/09 05:30:42;;;;;;;8.38;6.47;;;23.80;64.50;;;;;;5046042;28;20065;-49
2021/06/09 05:33:09;;;;;;;7.32;6.15;;;23.80;64.50;;;;;;5014826;28;20411;-48
2021/06/09 05:35:36;;;;;;;8.05;6.22;;;23.80;64.50;;;;;;5013929;28;20045;-50
2021/06/09 05:38:03;;;;;;;6.90;6.20;;;23.80;64.50;;;;;;5014210;28;20034;-48
2021/06/09 05:40:29;;;;;;;7.15;5.88;;;23.90;64.60;;;;;;5014222;28;20026;-50
2021/06/09 05:42:56;;;;;;;6.60;5.57;;;23.90;64.90;;;;;;5013456;28;20026;-48
2021/06/09 05:45:34;;;;;;;7.50;5.82;;;23.90;65.10;;;;;;5014752;28;20036;-50
2021/06/09 05:48:00;;;;;;;6.30;5.65;;;23.90;65.10;;;;;;5014402;28;20034;-47
2021/06/09 05:50:29;;;;;;;6.65;5.78;;;23.90;65.40;;;;;;5014117;28;20553;-50
2021/06/09 05:52:57;;;;;;;6.35;5.63;;;23.90;65.20;;;;;;5014258;28;20044;-50
2021/06/09 05:55:25;;;;;;;7.45;5.40;;;23.90;65.40;;;;;;5014540;28;20034;-51
2021/06/09 05:57:52;;;;;;;7.00;5.63;;;23.90;65.40;;;;;;5013577;28;20026;-50
2021/06/09 06:00:21;;;;;;;5.55;5.05;;;23.90;65.40;;;;;;5013847;28;20056;-54
2021/06/09 06:02:48;;;;;;;6.75;5.70;;;23.90;65.40;;;;;;5013220;28;20036;-53
2021/06/09 06:05:15;;;;;;;8.07;5.05;;;23.90;65.30;;;;;;5012930;28;20030;-54
2021/06/09 06:07:42;;;;;;;9.10;6.15;;;23.90;65.50;;;;;;5012530;28;20111;-49
2021/06/09 06:10:08;;;;;;;15.02;6.20;;;24.00;66.00;;;;;;5012842;28;20030;-46
2021/06/09 06:12:36;;;;;;;6.95;5.40;;;24.00;65.80;;;;;;5013172;28;20022;-44
2021/06/09 06:15:05;;;;;;;11.00;5.97;;;24.10;65.70;;;;;;5013922;28;20030;-47
2021/06/09 06:17:30;;;;;;;14.13;11.73;;;24.00;65.90;;;;;;5018032;28;20079;-46
2021/06/09 06:19:56;;;;;;;15.13;12.23;;;23.90;64.40;;;;;;5017594;28;20038;-45
2021/06/09 06:22:22;;;;;;;14.68;12.13;;;23.60;64.70;;;;;;5014583;28;20390;-45
2021/06/09 06:24:50;;;;;;;14.35;12.13;;;23.50;64.60;;;;;;5017902;28;20030;-49
2021/06/09 06:27:18;;;;;;;19.83;13.40;;;23.30;64.90;;;;;;5013226;28;20037;-48
2021/06/09 06:29:46;;;;;;;15.05;12.10;;;23.20;65.10;;;;;;5013015;28;20021;-47
2021/06/09 06:32:14;;;;;;;16.80;12.63;;;23.20;65.10;;;;;;5017118;28;20026;-46
2021/06/09 06:34:43;;;;;;;16.65;12.48;;;23.20;65.30;;;;;;5011233;28;20022;-49
2021/06/09 06:37:10;;;;;;;16.60;11.98;;;23.20;64.90;;;;;;5013218;28;20030;-50
2021/06/09 06:39:36;;;;;;;16.90;11.63;;;23.20;65.00;;;;;;5012571;28;20048;-48
2021/06/09 06:42:03;;;;;;;16.52;12.98;;;23.30;64.80;;;;;;5012615;28;20053;-46
2021/06/09 06:44:30;;;;;;;17.45;12.32;;;22.70;66.00;;;;;;5013510;28;20080;-47
2021/06/09 06:46:56;;;;;;;16.20;11.75;;;22.90;65.80;;;;;;5015618;28;20041;-47
2021/06/09 06:49:22;;;;;;;18.88;11.23;;;23.10;65.30;;;;;;5015255;28;20037;-45
2021/06/09 06:51:51;;;;;;;14.98;11.32;;;23.20;65.10;;;;;;5012039;28;20076;-45
2021/06/09 06:54:17;;;;;;;16.15;12.70;;;23.20;65.30;;;;;;5013282;28;20025;-46
2021/06/09 06:56:43;;;;;;;15.40;11.10;;;23.20;65.00;;;;;;5011756;28;20486;-50
2021/06/09 06:59:09;;;;;;;15.07;11.30;;;23.20;65.10;;;;;;5012997;28;20108;-50
2021/06/09 07:01:36;;;;;;;14.18;10.80;;;23.20;65.10;;;;;;5012140;28;20372;-46
2021/06/09 07:04:04;;;;;;;14.63;11.23;;;23.20;65.00;;;;;;5013033;28;20041;-48
2021/06/09 07:06:32;;;;;;;14.07;10.10;;;23.10;65.00;;;;;;5012688;28;20073;-47
2021/06/09 07:08:59;;;;;;;16.05;11.30;;;23.20;64.80;;;;;;5012523;28;20026;-52
2021/06/09 07:11:25;;;;;;;17.60;11.77;;;23.20;64.90;;;;;;5012385;28;20084;-51
2021/06/09 07:13:52;;;;;;;15.48;11.93;;;23.20;65.10;;;;;;5011622;28;20116;-47
2021/06/09 07:16:19;;;;;;;16.10;11.68;;;23.20;65.20;;;;;;5012449;28;20033;-46
2021/06/09 07:18:46;;;;;;;10.98;9.23;;;23.20;65.20;;;;;;5027339;28;20025;-47
2021/06/09 07:21:20;;;;;;;11.55;8.10;;;23.40;64.80;;;;;;5031834;28;20053;-48
2021/06/09 07:23:46;;;;;;;11.07;7.90;;;23.70;64.10;;;;;;5017255;28;20034;-50
2021/06/09 07:26:16;;;;;;;12.30;7.80;;;23.90;63.50;;;;;;5012395;28;20084;-46
2021/06/09 07:28:48;;;;;;;12.25;7.80;;;24.00;63.20;;;;;;5011860;28;20112;-47
2021/06/09 07:31:18;;;;;;;11.88;7.13;;;24.20;63.10;;;;;;5012526;28;20025;-47
2021/06/09 07:33:46;;;;;;;10.77;7.10;;;24.20;62.90;;;;;;5011778;28;20113;-50
2021/06/09 07:36:14;;;;;;;15.85;6.72;;;24.30;62.80;;;;;;5012189;28;20475;-44
2021/06/09 07:38:45;;;;;;;11.80;6.80;;;24.30;62.80;;;;;;5011528;28;20018;-47
2021/06/09 07:41:12;;;;;;;13.37;7.40;;;24.30;62.80;;;;;;5012180;28;20029;-46
2021/06/09 07:43:41;;;;;;;11.48;8.10;;;24.40;63.00;;;;;;5011109;28;20045;-45
2021/06/09 07:46:10;;;;;;;10.75;6.45;;;24.40;63.10;;;;;;5012219;28;20450;-47
2021/06/09 07:48:37;;;;;;;12.90;7.35;;;24.40;63.10;;;;;;5010949;28;20025;-45
2021/06/09 07:51:10;;;;;;;14.63;6.82;;;24.40;63.30;;;;;;5011565;28;20403;-48
2021/06/09 07:53:38;;;;;;;10.52;6.97;;;24.40;63.20;;;;;;5011601;28;20091;-47
2021/06/09 07:56:05;;;;;;;10.82;6.15;;;24.40;63.10;;;;;;5011870;28;20042;-50
2021/06/09 07:58:33;;;;;;;12.20;6.88;;;24.40;63.20;;;;;;5011508;28;20030;-55
2021/06/09 08:01:00;;;;;;;14.93;7.18;;;24.40;63.50;;;;;;5011099;28;20061;-50
2021/06/09 08:03:28;;;;;;;14.60;6.93;;;24.40;63.60;;;;;;5011779;28;20026;-48
2021/06/09 08:05:58;;;;;;;9.90;6.78;;;24.40;63.60;;;;;;5010855;28;20030;-50
2021/06/09 08:08:24;;;;;;;19.45;7.18;;;24.40;63.50;;;;;;5011765;28;20383;-48
2021/06/09 08:10:51;;;;;;;15.02;6.78;;;24.40;63.40;;;;;;5026261;28;20045;-48
2021/06/09 08:13:17;;;;;;;8.02;6.38;;;24.50;63.50;;;;;;5011438;28;20030;-51
2021/06/09 08:15:44;;;;;;;10.20;6.40;;;24.50;63.20;;;;;;5010920;28;20034;-47
2021/06/09 08:18:12;;;;;;;10.90;6.28;;;24.50;63.20;;;;;;5011874;28;20030;-49
2021/06/09 08:21:06;;;;;;;10.63;6.40;;;24.50;63.20;;;;;;5010736;28;20042;-44
2021/06/09 08:23:32;;;;;;;11.27;7.25;;;24.50;63.60;;;;;;5011804;28;20021;-51
2021/06/09 08:25:58;;;;;;;9.98;6.68;;;24.50;63.10;;;;;;5010893;28;20053;-48
2021/06/09 08:28:24;;;;;;;12.52;6.28;;;24.50;63.30;;;;;;5011337;28;20084;-47
2021/06/09 08:30:50;;;;;;;11.63;6.70;;;24.50;63.30;;;;;;5010365;28;20030;-49
2021/06/09 08:33:15;;;;;;;9.30;5.93;;;24.50;63.30;;;;;;5043474;28;20121;-49
2021/06/09 08:35:41;;;;;;;10.43;6.57;;;24.60;63.10;;;;;;5010996;28;20057;-46
2021/06/09 08:38:07;;;;;;;12.88;6.85;;;24.60;63.30;;;;;;5011276;28;20406;-46
2021/06/09 08:40:33;;;;;;;16.63;7.15;;;24.50;63.30;;;;;;5010999;28;20026;-48
2021/06/09 08:42:59;;;;;;;10.38;6.68;;;24.50;63.50;;;;;;5010493;28;20092;-51
2021/06/09 08:45:25;;;;;;;10.18;6.43;;;24.60;63.50;;;;;;5011020;28;20030;-47
2021/06/09 08:47:52;;;;;;;15.55;7.32;;;24.60;63.30;;;;;;5010970;28;20049;-49
2021/06/09 08:50:19;;;;;;;10.55;6.35;;;24.60;63.00;;;;;;5011449;28;20399;-48
2021/06/09 08:52:51;;;;;;;7.53;6.30;;;24.60;63.20;;;;;;5009830;28;20045;-48
2021/06/09 08:55:17;;;;;;;;;;;24.60;63.40;;;;;;5043942;28;20370;-43
2021/06/09 08:57:44;;;;;;;7.72;6.25;;;24.60;63.50;;;;;;5012820;28;19913;-47
2021/06/09 09:00:13;;;;;;;12.50;6.53;;;24.60;63.10;;;;;;5014726;28;20479;-51
2021/06/09 09:02:39;;;;;;;8.70;6.63;;;24.70;63.00;;;;;;5014653;28;20494;-46
2021/06/09 09:05:09;;;;;;;11.10;6.53;;;24.70;63.10;;;;;;5015055;28;20041;-47
2021/06/09 09:07:35;;;;;;;9.93;6.85;;;24.60;63.30;;;;;;5014864;28;20109;-48
2021/06/09 09:10:04;;;;;;;11.50;7.07;;;24.60;63.30;;;;;;5014556;28;20076;-50
2021/06/09 09:12:30;;;;;;;8.93;5.97;;;24.60;63.50;;;;;;5014141;28;20026;-46
2021/06/09 09:14:58;;;;;;;9.60;6.57;;;24.70;63.30;;;;;;5014224;28;20064;-50
2021/06/09 09:17:23;;;;;;;13.50;6.65;;;24.70;63.10;;;;;;5019959;28;20040;-48
2021/06/09 09:19:51;;;;;;;7.25;6.03;;;24.70;63.60;;;;;;5014069;28;20037;-52
2021/06/09 09:22:35;;;;;;;7.22;6.50;;;24.70;63.60;;;;;;5014880;28;20026;-45
2021/06/09 09:25:11;;;;;;;12.95;7.40;;;24.70;63.70;;;;;;5008546;28;20029;-51
2021/06/09 09:27:37;;;;;;;8.50;6.13;;;24.70;63.90;;;;;;5014300;28;20111;-44
2021/06/09 09:30:07;;;;;;;6.78;5.70;;;24.70;63.90;;;;;;5014194;28;20029;-51
2021/06/09 09:32:33;;;;;;;9.25;6.45;;;24.70;64.40;;;;;;5014426;28;20030;-46
2021/06/09 09:35:11;;;;;;;7.55;6.43;;;24.70;64.10;;;;;;5013725;28;20041;-46
2021/06/09 09:37:37;;;;;;;7.82;5.88;;;24.70;63.90;;;;;;5014574;28;20392;-45
2021/06/09 09:40:16;;;;;;;8.38;6.05;;;24.70;63.70;;;;;;5012184;28;20025;-46
2021/06/09 09:42:47;;;;;;;7.35;6.55;;;24.70;63.90;;;;;;5007476;28;20079;-46
2021/06/09 09:45:28;;;;;;;9.23;7.07;;;24.70;63.70;;;;;;5013745;28;20036;-49
2021/06/09 09:48:13;;;;;;;8.95;8.05;;;24.70;63.50;;;;;;5017571;28;20046;-49
2021/06/09 09:50:50;;;;;;;18.95;9.50;;;24.80;63.60;;;;;;5014227;28;20041;-45
2021/06/09 09:53:26;;;;;;;47.65;16.38;;;24.70;63.50;;;;;;5014121;28;20076;-49
2021/06/09 09:56:08;;;;;;;35.20;13.15;;;24.80;63.70;;;;;;5017186;28;20066;-47
2021/06/09 09:58:37;;;;;;;32.50;13.55;;;24.80;63.70;;;;;;5020247;28;20483;-48
2021/06/09 10:01:13;;;;;;;31.60;13.40;;;24.80;63.60;;;;;;5013049;28;20479;-48
2021/06/09 10:03:41;;;;;;;23.92;12.30;;;24.80;63.70;;;;;;5013603;28;20846;-44
2021/06/09 10:06:16;;;;;;;27.88;12.95;;;24.80;63.80;;;;;;5014247;28;20034;-46
2021/06/09 10:08:42;;;;;;;20.95;12.10;;;24.80;63.70;;;;;;5006304;28;20100;-48
2021/06/09 10:11:15;;;;;;;29.45;12.25;;;24.70;63.60;;;;;;5013115;28;20041;-48
2021/06/09 10:13:41;;;;;;;27.05;12.48;;;24.70;63.60;;;;;;5013102;28;20106;-49
2021/06/09 10:16:27;;;;;;;26.23;12.18;;;24.70;63.60;;;;;;5013489;28;20121;-51
2021/06/09 10:19:08;;;;;;;23.73;11.30;;;24.70;63.70;;;;;;5017464;28;20033;-48
2021/06/09 10:21:46;;;;;;;24.23;11.98;;;24.70;63.60;;;;;;5013372;28;20127;-46
2021/06/09 10:24:12;;;;;;;25.05;11.70;;;24.70;63.50;;;;;;5013296;28;20037;-48
2021/06/09 10:26:40;;;;;;;19.77;11.27;;;24.80;63.60;;;;;;5013453;28;20462;-48
2021/06/09 10:29:10;;;;;;;23.83;12.07;;;24.70;63.50;;;;;;5013162;28;20038;-51
2021/06/09 10:31:40;;;;;;;17.75;10.95;;;24.80;64.00;;;;;;5013378;28;20034;-50
2021/06/09 10:34:06;;;;;;;19.23;11.13;;;24.80;63.90;;;;;;5016196;28;20025;-50
2021/06/09 10:36:40;;;;;;;21.35;10.23;;;24.80;63.60;;;;;;5027197;28;20037;-46
2021/06/09 10:39:07;;;;;;;16.55;10.10;;;24.80;63.80;;;;;;5014646;28;20034;-50
2021/06/09 10:41:41;;;;;;;18.35;10.75;;;24.80;63.80;;;;;;5013304;28;20049;-49
2021/06/09 10:44:13;;;;;;;20.83;11.63;;;24.80;63.90;;;;;;5012965;28;20076;-49
2021/06/09 10:46:43;;;;;;;20.23;10.40;;;24.80;63.90;;;;;;5013607;28;20038;-48
2021/06/09 10:49:14;;;;;;;20.98;11.15;;;24.80;63.90;;;;;;5013475;28;20060;-51
2021/06/09 10:54:57;;;;;;;;;;;;;;;;;;;;;
2021/06/09 10:57:32;;;;;;;17.15;10.32;;;24.80;64.10;;;;;;5019495;28;20041;-51
2021/06/09 11:00:08;;;;;;;18.58;10.00;;;24.80;64.20;;;;;;5011763;28;20535;-49
2021/06/09 11:02:40;;;;;;;16.13;9.88;;;24.90;64.10;;;;;;5012798;28;20029;-50
2021/06/09 11:05:10;;;;;;;19.75;10.30;;;24.90;63.90;;;;;;5012243;28;20524;-51
2021/06/09 11:07:39;;;;;;;17.10;9.85;;;24.90;64.00;;;;;;5009354;28;20038;-47
2021/06/09 11:10:12;;;;;;;18.40;10.07;;;24.90;64.10;;;;;;5005756;28;20058;-47
2021/06/09 11:12:46;;;;;;;18.85;9.73;;;24.90;64.10;;;;;;5012592;28;20081;-47
2021/06/09 11:15:14;;;;;;;16.88;10.32;;;24.90;63.90;;;;;;5012538;28;20033;-51
2021/06/09 11:17:52;;;;;;;15.40;10.18;;;24.90;64.00;;;;;;5011797;28;20053;-47
2021/06/09 11:20:25;;;;;;;14.68;9.07;;;24.90;64.10;;;;;;5004906;28;20026;-48
2021/06/09 11:23:08;;;;;;;15.52;9.32;;;24.90;63.90;;;;;;5027176;28;20037;-47
2021/06/09 11:25:39;;;;;;;14.07;9.82;;;24.90;63.20;;;;;;5027845;28;20022;-50
2021/06/09 11:28:40;;;;;;;15.30;10.23;;;24.90;63.70;;;;;;5011678;28;20044;-45
2021/06/09 11:31:09;;;;;;;14.15;8.43;;;25.00;63.20;;;;;;5011810;28;20061;-50
2021/06/09 11:34:09;;;;;;;14.07;9.02;;;25.00;63.60;;;;;;5012327;28;20026;-46
2021/06/09 11:36:41;;;;;;;13.38;8.63;;;25.00;63.50;;;;;;5004914;28;20079;-49
2021/06/09 11:39:21;;;;;;;14.13;9.27;;;25.00;63.40;;;;;;5014398;28;20498;-49
2021/06/09 11:41:58;;;;;;;14.85;8.85;;;25.00;63.30;;;;;;5018069;28;20037;-48
2021/06/09 11:44:38;;;;;;;15.00;8.23;;;25.00;63.30;;;;;;5012118;28;20446;-50
2021/06/09 11:47:20;;;;;;;16.85;8.88;;;25.00;63.40;;;;;;5014639;28;20100;-47
2021/06/09 11:53:12;;;;;;;13.50;8.65;;;25.00;63.30;;;;;;5005080;28;20049;-51
2021/06/09 11:56:04;;;;;;;10.50;7.72;;;25.00;63.20;;;;;;5005924;28;20451;-47
2021/06/09 11:58:49;;;;;;;14.20;8.57;;;25.00;63.20;;;;;;5011443;28;20037;-53
2021/06/09 12:01:21;;;;;;;15.25;8.38;;;25.00;63.20;;;;;;5005933;28;20037;-49
2021/06/09 12:04:06;;;;;;;;;;;25.00;63.30;;;;;;5011534;28;20037;-50
2021/06/09 12:06:59;;;;;;;14.23;8.10;;;25.00;63.30;;;;;;5014108;28;19929;-48
2021/06/09 12:09:55;;;;;;;11.30;8.32;;;25.00;63.60;;;;;;5010185;28;20042;-47
2021/06/09 12:12:32;;;;;;;13.82;8.40;;;25.00;63.60;;;;;;5011027;28;20395;-47
2021/06/09 12:15:10;;;;;;;10.25;7.95;;;25.00;63.90;;;;;;5011310;28;20026;-51
2021/06/09 12:17:41;;;;;;;10.23;8.10;;;25.00;63.40;;;;;;5018092;28;20494;-53
2021/06/09 12:20:14;;;;;;;12.55;8.15;;;25.00;63.50;;;;;;5010818;28;20038;-52
2021/06/09 12:22:57;;;;;;;12.55;8.07;;;25.00;63.60;;;;;;5011554;28;20042;-53
2021/06/09 12:25:32;;;;;;;12.23;8.80;;;25.00;63.40;;;;;;5027281;28;20490;-52
2021/06/09 12:28:28;;;;;;;16.15;7.72;;;25.00;63.40;;;;;;5011060;28;20049;-52
2021/06/09 12:31:17;;;;;;;11.68;8.52;;;25.00;63.40;;;;;;5009518;28;20503;-52
2021/06/09 12:33:48;;;;;;;11.00;7.53;;;25.00;63.90;;;;;;5007989;28;20061;-48
2021/06/09 12:36:41;;;;;;;11.00;7.25;;;25.00;63.20;;;;;;5011717;28;20095;-50
2021/06/09 12:39:14;;;;;;;11.55;8.38;;;25.00;63.20;;;;;;5011082;28;20511;-58
2021/06/09 12:41:40;;;;;;;10.55;7.97;;;25.00;63.10;;;;;;5011240;28;20026;-58
2021/06/09 12:44:21;;;;;;;11.25;7.55;;;25.00;63.20;;;;;;5010833;28;20037;-56
2021/06/09 12:47:02;;;;;;;9.23;7.78;;;25.00;63.40;;;;;;5012679;28;20442;-54
2021/06/09 12:49:33;;;;;;;9.70;7.83;;;25.10;62.90;;;;;;5011896;28;20034;-56
2021/06/09 12:52:08;;;;;;;9.52;8.02;;;25.10;63.00;;;;;;5011134;28;20287;-55
2021/06/09 12:54:41;;;;;;;10.48;8.43;;;25.10;63.20;;;;;;5011413;28;20025;-56
2021/06/09 12:57:15;;;;;;;9.68;8.18;;;25.10;63.20;;;;;;5010928;28;20467;-55
2021/06/09 12:59:52;;;;;;;10.32;7.70;;;25.10;63.40;;;;;;5012047;28;20033;-56
2021/06/09 13:02:18;;;;;;;10.68;7.20;;;25.10;63.20;;;;;;5011183;28;20029;-51
2021/06/09 13:05:00;;;;;;;;;;;;;;;;;;;;;
2021/06/09 13:07:26;;;;;;;9.85;7.45;;;25.00;63.10;;;;;;5004797;28;20042;-55
2021/06/09 13:10:13;;;;;;;8.07;7.00;;;25.00;62.90;;;;;;5010292;28;20117;-56